Terminal Aerodrome Forecast
Issued by NWS Spokane, WA

Home | Current Version | Previous Version | Text Only | Print | Product List | Glossary On
Versions: 1 2 3 4 5 6 7 8 9 10 11 12 13 14 15 16 17 18 19 20 21 22 23 24
149
FTUS46 KOTX 232342
TAFEAT
TAF
KEAT 232342Z 2400/2424 15005KT P6SM VCTS BKN100CB
     FM240300 31011KT P6SM FEW070 SCT150
     FM242000 25005KT P6SM SCT200=

USA.gov is the U.S. government's official web portal to all federal, state and local government web resources and services.